createdAt,value
2023-03-17T00:01:08.334Z,54.83
2023-03-17T00:04:12.655Z,54.38
2023-03-17T00:07:17.323Z,54.25
2023-03-17T00:10:23.841Z,53.91
2023-03-17T00:13:27.224Z,53.34
2023-03-17T00:16:34.986Z,52.94
2023-03-17T00:19:37.722Z,53.35
2023-03-17T00:22:41.030Z,53.74
2023-03-17T00:25:45.428Z,54.36
2023-03-17T00:28:48.537Z,53.80
2023-03-17T00:31:51.394Z,53.28
2023-03-17T00:34:58.511Z,53.30
2023-03-17T00:38:01.174Z,52.31
2023-03-17T00:41:04.585Z,53.01
2023-03-17T00:44:07.163Z,52.80
2023-03-17T00:47:11.987Z,52.03
2023-03-17T00:50:18.360Z,52.34
2023-03-17T00:53:23.986Z,52.55
2023-03-17T00:56:27.106Z,52.59
2023-03-17T00:59:37.348Z,53.00
2023-03-17T01:02:39.949Z,52.79
2023-03-17T01:05:42.738Z,53.02
2023-03-17T01:08:45.288Z,52.49
2023-03-17T01:11:49.268Z,52.75
2023-03-17T01:14:58.165Z,52.88
2023-03-17T01:18:02.892Z,52.29
2023-03-17T01:21:06.752Z,52.39
2023-03-17T01:24:09.762Z,53.41
2023-03-17T01:27:12.691Z,55.27
2023-03-17T01:30:26.218Z,57.68
2023-03-17T01:33:29.214Z,59.71
2023-03-17T01:36:31.816Z,60.88
2023-03-17T01:39:34.432Z,61.09
2023-03-17T01:42:37.389Z,62.04
2023-03-17T01:46:36.879Z,63.59
2023-03-17T01:49:40.096Z,64.49
2023-03-17T01:52:42.783Z,63.51
2023-03-17T01:55:48.405Z,64.94
2023-03-17T01:58:54.148Z,65.28
2023-03-17T02:02:03.444Z,66.08
2023-03-17T02:05:09.986Z,65.80
2023-03-17T02:08:14.945Z,66.24
2023-03-17T02:11:17.898Z,67.32
2023-03-17T02:14:20.572Z,68.21
2023-03-17T02:17:25.803Z,68.38
2023-03-17T02:20:28.573Z,68.25
2023-03-17T02:23:31.896Z,67.58
2023-03-17T02:26:36.808Z,68.47
2023-03-17T02:29:40.540Z,68.93
2023-03-17T02:32:44.271Z,68.27
2023-03-17T02:35:46.986Z,68.58
2023-03-17T02:38:52.944Z,69.53
2023-03-17T02:41:56.113Z,68.71
2023-03-17T02:44:58.830Z,68.43
2023-03-17T02:48:01.611Z,69.23
2023-03-17T02:51:04.613Z,68.76
2023-03-17T02:54:07.407Z,67.52
2023-03-17T02:57:10.031Z,67.84
2023-03-17T03:00:14.371Z,68.19
2023-03-17T03:03:18.019Z,68.91
2023-03-17T03:06:20.951Z,69.04
2023-03-17T03:09:24.302Z,68.03
2023-03-17T03:12:27.059Z,69.33
2023-03-17T03:15:29.674Z,69.06
2023-03-17T03:18:33.032Z,69.38
2023-03-17T03:21:36.791Z,69.36
2023-03-17T03:24:39.368Z,71.07
2023-03-17T03:27:41.951Z,72.11
2023-03-17T03:30:46.968Z,71.51
2023-03-17T03:33:49.679Z,70.77
2023-03-17T03:36:52.234Z,70.42
2023-03-17T03:39:54.882Z,70.68
2023-03-17T03:42:57.490Z,71.10
2023-03-17T03:46:00.252Z,71.85
2023-03-17T03:49:02.898Z,72.50
2023-03-17T03:52:06.730Z,72.37
2023-03-17T03:55:09.681Z,73.31
2023-03-17T03:58:12.399Z,73.70
2023-03-17T04:01:15.066Z,74.38
2023-03-17T04:04:17.906Z,74.03
2023-03-17T04:07:21.506Z,74.05
2023-03-17T04:10:24.276Z,74.19
2023-03-17T04:13:27.241Z,74.35
2023-03-17T04:16:29.994Z,73.74
2023-03-17T04:19:32.650Z,73.47
2023-03-17T04:22:35.311Z,74.27
2023-03-17T04:25:38.171Z,73.43
2023-03-17T04:28:41.010Z,74.64
2023-03-17T04:31:43.740Z,74.43
2023-03-17T04:34:46.378Z,73.61
2023-03-17T04:37:49.895Z,75.00
2023-03-17T04:40:53.176Z,74.84
2023-03-17T04:43:55.910Z,74.73
2023-03-17T04:46:58.576Z,74.70
2023-03-17T04:50:01.661Z,76.12
2023-03-17T04:53:04.334Z,74.39
2023-03-17T04:56:07.191Z,73.74
2023-03-17T04:59:10.284Z,74.53
2023-03-17T05:02:12.985Z,74.83
2023-03-17T05:05:15.823Z,75.66
2023-03-17T05:08:18.707Z,74.77
2023-03-17T05:11:21.337Z,74.33
2023-03-17T05:14:24.013Z,74.75
2023-03-17T05:17:26.596Z,72.50
2023-03-17T05:20:29.437Z,69.05
2023-03-17T05:23:32.781Z,66.74
2023-03-17T05:26:35.538Z,63.92
2023-03-17T05:29:38.303Z,62.87
2023-03-17T05:32:41.011Z,64.18
2023-03-17T05:35:43.829Z,62.45
2023-03-17T05:38:46.751Z,58.96
2023-03-17T05:41:50.520Z,55.94
2023-03-17T05:44:53.522Z,52.19
2023-03-17T05:47:56.876Z,50.88
2023-03-17T05:51:00.319Z,49.25
2023-03-17T05:54:03.027Z,48.34
2023-03-17T05:57:05.635Z,46.39
2023-03-17T06:00:09.476Z,45.29
2023-03-17T06:03:13.966Z,43.98
2023-03-17T06:06:16.631Z,43.01
2023-03-17T06:09:19.380Z,42.85
2023-03-17T06:12:22.330Z,42.20
2023-03-17T06:15:25.784Z,42.43
2023-03-17T06:18:28.469Z,43.27
2023-03-17T06:21:31.355Z,42.73
2023-03-17T06:24:34.218Z,41.41
2023-03-17T06:27:38.034Z,40.26
2023-03-17T06:30:41.065Z,40.20
2023-03-17T06:33:43.963Z,39.30
2023-03-17T06:36:46.794Z,39.62
2023-03-17T06:39:49.687Z,40.48
2023-03-17T06:42:53.305Z,37.67
2023-03-17T06:45:55.927Z,36.64
2023-03-17T06:48:59.423Z,36.37
2023-03-17T06:52:02.056Z,34.21
2023-03-17T06:55:06.365Z,33.53
2023-03-17T06:58:10.715Z,31.59
2023-03-17T07:01:14.659Z,30.50
2023-03-17T07:04:17.639Z,30.64
2023-03-17T07:07:21.230Z,29.77
2023-03-17T07:10:24.906Z,30.63
2023-03-17T07:13:28.123Z,29.88
2023-03-17T07:16:30.959Z,30.66
2023-03-17T07:19:35.152Z,30.62
2023-03-17T07:22:38.125Z,28.68
2023-03-17T07:25:43.666Z,29.56
2023-03-17T07:28:46.729Z,29.05
2023-03-17T07:31:49.991Z,28.43
2023-03-17T07:34:53.087Z,29.96
2023-03-17T07:37:55.735Z,28.36
2023-03-17T07:40:58.341Z,29.30
2023-03-17T07:44:01.902Z,27.56
2023-03-17T07:47:04.593Z,26.60
2023-03-17T07:50:07.856Z,25.77
2023-03-17T07:53:10.995Z,26.24
2023-03-17T07:56:14.346Z,26.55
2023-03-17T07:59:17.562Z,26.85
2023-03-17T08:02:21.266Z,25.18
2023-03-17T08:05:24.259Z,25.60
2023-03-17T08:08:28.271Z,26.49
2023-03-17T08:11:31.176Z,23.42
2023-03-17T08:14:33.895Z,23.35
2023-03-17T08:17:37.371Z,24.23
2023-03-17T08:20:40.828Z,24.66
2023-03-17T08:23:43.917Z,21.96
2023-03-17T08:26:49.735Z,23.85
2023-03-17T08:29:52.367Z,22.41
2023-03-17T08:32:55.081Z,20.11
2023-03-17T08:35:57.776Z,20.31
2023-03-17T08:39:01.215Z,21.16
2023-03-17T08:42:04.830Z,19.15
2023-03-17T08:45:07.853Z,20.14
2023-03-17T08:48:10.495Z,20.67
2023-03-17T08:51:14.091Z,19.38
2023-03-17T08:54:18.031Z,21.31
2023-03-17T08:57:20.880Z,20.50
2023-03-17T09:00:23.720Z,18.34
2023-03-17T09:03:27.119Z,19.73
2023-03-17T09:06:30.344Z,17.75
2023-03-17T09:09:36.656Z,19.28
2023-03-17T09:12:39.715Z,18.61
2023-03-17T09:15:42.396Z,18.54
2023-03-17T09:18:46.750Z,20.00
2023-03-17T09:21:50.402Z,20.36
2023-03-17T09:24:53.386Z,19.60
2023-03-17T09:27:55.976Z,19.94
2023-03-17T09:31:03.604Z,19.93
2023-03-17T09:34:06.461Z,20.49
2023-03-17T09:37:10.008Z,20.25
2023-03-17T09:40:17.258Z,17.92
2023-03-17T09:43:26.058Z,16.41
2023-03-17T09:46:46.887Z,18.62
2023-03-17T09:49:52.496Z,17.64
2023-03-17T09:52:57.387Z,18.83
2023-03-17T09:56:05.695Z,19.15
2023-03-17T09:59:36.979Z,17.90
2023-03-17T10:02:39.647Z,17.38
2023-03-17T10:05:42.348Z,19.33
2023-03-17T10:08:54.914Z,17.98
2023-03-17T10:12:18.631Z,17.02
2023-03-17T10:15:27.945Z,15.73
2023-03-17T10:18:39.299Z,16.65
2023-03-17T10:21:50.361Z,18.74
2023-03-17T10:24:57.859Z,16.85
2023-03-17T10:28:09.004Z,18.38
2023-03-17T10:31:17.677Z,21.16
2023-03-17T10:34:27.617Z,21.99
2023-03-17T10:37:36.659Z,18.26
2023-03-17T10:40:39.755Z,18.39
2023-03-17T10:43:47.325Z,20.54
2023-03-17T10:46:55.576Z,17.85
2023-03-17T10:50:03.734Z,17.01
2023-03-17T10:53:09.432Z,16.60
2023-03-17T10:56:23.593Z,17.10
2023-03-17T11:02:45.897Z,19.33
2023-03-17T11:05:55.599Z,16.34
2023-03-17T11:09:07.617Z,20.97
2023-03-17T11:12:34.216Z,16.79
2023-03-17T11:15:42.436Z,16.85
2023-03-17T11:18:47.322Z,16.48
2023-03-17T11:22:10.087Z,15.93
2023-03-17T11:25:17.449Z,16.05
2023-03-17T11:28:25.084Z,17.54
2023-03-17T11:31:34.956Z,19.54
2023-03-17T11:34:56.875Z,17.49
2023-03-17T11:38:22.399Z,16.03
2023-03-17T11:41:27.858Z,17.19
2023-03-17T11:44:57.837Z,18.28
2023-03-17T11:48:15.212Z,17.29
2023-03-17T11:51:27.656Z,19.07
2023-03-17T11:54:33.452Z,18.18
2023-03-17T11:57:41.226Z,18.48
2023-03-17T12:01:09.122Z,17.25
2023-03-17T12:04:19.047Z,18.87
2023-03-17T12:07:29.098Z,18.51
2023-03-17T12:10:39.071Z,18.91
2023-03-17T12:13:46.763Z,18.27
2023-03-17T12:17:00.803Z,18.16
2023-03-17T12:20:07.156Z,20.46
2023-03-17T12:23:32.246Z,19.49
2023-03-17T12:26:44.500Z,19.37
2023-03-17T12:29:52.637Z,18.25
2023-03-17T12:33:16.013Z,20.39
2023-03-17T12:36:19.089Z,24.76
2023-03-17T12:39:28.293Z,22.79
2023-03-17T12:42:38.630Z,24.21
2023-03-17T12:45:50.855Z,24.98
2023-03-17T12:48:56.479Z,21.52
2023-03-17T12:52:20.158Z,20.09
2023-03-17T12:55:27.057Z,21.29
2023-03-17T12:58:38.980Z,20.47
2023-03-17T13:01:46.032Z,21.00
2023-03-17T13:05:03.851Z,19.64
2023-03-17T13:08:11.032Z,20.28
2023-03-17T13:11:14.805Z,19.14
2023-03-17T13:14:43.963Z,18.66
2023-03-17T13:17:46.899Z,18.54
2023-03-17T13:21:10.439Z,18.61
2023-03-17T13:24:15.877Z,19.25
2023-03-17T13:27:30.972Z,21.16
2023-03-17T13:30:36.541Z,20.22
2023-03-17T13:33:50.155Z,23.80
2023-03-17T13:37:13.963Z,21.00
2023-03-17T13:40:25.483Z,20.32
2023-03-17T13:43:52.743Z,21.73
2023-03-17T13:46:55.552Z,22.67
2023-03-17T13:50:04.042Z,22.56
2023-03-17T13:53:11.819Z,20.38
2023-03-17T13:56:21.894Z,22.90
2023-03-17T13:59:39.381Z,24.75
2023-03-17T14:02:44.783Z,20.72
2023-03-17T14:05:52.817Z,22.64
2023-03-17T14:09:00.829Z,23.17
2023-03-17T14:12:17.741Z,22.55
2023-03-17T14:15:48.568Z,22.00
2023-03-17T14:19:11.987Z,20.23
2023-03-17T14:22:23.870Z,20.96
2023-03-17T14:25:37.746Z,21.25
2023-03-17T14:28:40.650Z,21.50
2023-03-17T14:31:48.574Z,22.52
2023-03-17T14:34:56.379Z,22.55
2023-03-17T14:38:00.275Z,22.15
2023-03-17T14:41:27.144Z,22.26
2023-03-17T14:44:43.745Z,23.40
2023-03-17T14:47:47.052Z,25.97
2023-03-17T14:50:55.589Z,22.10
2023-03-17T14:54:01.682Z,21.52
2023-03-17T14:57:14.793Z,21.43
2023-03-17T15:00:49.810Z,23.22
2023-03-17T15:04:24.001Z,23.33
2023-03-17T15:07:36.689Z,23.07
2023-03-17T15:10:43.507Z,26.06
2023-03-17T15:13:46.498Z,22.31
2023-03-17T15:16:52.491Z,23.05
2023-03-17T15:19:58.202Z,23.21
2023-03-17T15:23:25.026Z,23.37
2023-03-17T15:26:34.342Z,24.16
2023-03-17T15:29:36.925Z,26.16
2023-03-17T15:32:39.932Z,24.75
2023-03-17T15:35:42.506Z,24.89
2023-03-17T15:38:45.319Z,25.61
2023-03-17T15:41:47.880Z,25.99
2023-03-17T15:44:51.577Z,28.27
2023-03-17T15:47:55.436Z,27.54
2023-03-17T15:51:00.269Z,29.33
2023-03-17T15:54:03.039Z,29.27
2023-03-17T15:57:06.251Z,29.30
2023-03-17T16:00:10.462Z,29.03
2023-03-17T16:03:32.864Z,30.37
2023-03-17T16:06:35.786Z,31.00
2023-03-17T16:09:38.376Z,32.41
2023-03-17T16:12:41.771Z,30.65
2023-03-17T16:15:50.958Z,30.70
2023-03-17T16:18:53.788Z,31.92
2023-03-17T16:21:57.510Z,34.93
2023-03-17T16:25:00.111Z,36.23
2023-03-17T16:28:14.246Z,37.29
2023-03-17T16:31:20.972Z,38.51
2023-03-17T16:34:24.261Z,40.35
2023-03-17T16:37:26.848Z,38.20
2023-03-17T16:40:37.947Z,39.51
2023-03-17T16:43:44.248Z,40.54
2023-03-17T16:46:47.368Z,39.96
2023-03-17T16:49:50.137Z,41.12
2023-03-17T16:52:52.839Z,38.92
2023-03-17T16:55:55.752Z,40.30
2023-03-17T16:58:58.345Z,42.50
2023-03-17T17:02:02.400Z,42.59
2023-03-17T17:05:12.905Z,44.01
2023-03-17T17:08:15.911Z,44.49
2023-03-17T17:11:19.503Z,47.70
2023-03-17T17:14:22.055Z,46.45
2023-03-17T17:17:24.747Z,46.17
2023-03-17T17:20:31.030Z,46.77
2023-03-17T17:23:34.311Z,49.05
2023-03-17T17:26:36.874Z,47.43
2023-03-17T17:29:39.886Z,45.58
2023-03-17T17:32:42.862Z,45.16
2023-03-17T17:35:46.779Z,45.69
2023-03-17T17:38:51.375Z,44.97
2023-03-17T17:41:54.027Z,45.23
2023-03-17T17:44:56.782Z,44.96
2023-03-17T17:47:59.524Z,46.26
2023-03-17T17:51:02.457Z,50.18
2023-03-17T17:54:06.363Z,48.88
2023-03-17T17:57:11.761Z,50.01
2023-03-17T18:00:17.274Z,48.29
2023-03-17T18:03:24.640Z,49.75
2023-03-17T18:06:27.259Z,51.89
2023-03-17T18:09:32.060Z,50.72
2023-03-17T18:12:35.563Z,51.36
2023-03-17T18:15:38.705Z,50.25
2023-03-17T18:18:43.378Z,52.18
2023-03-17T18:21:47.157Z,51.64
2023-03-17T18:24:50.244Z,52.85
2023-03-17T18:27:55.065Z,52.11
2023-03-17T18:31:07.127Z,52.20
2023-03-17T18:34:34.404Z,52.70
2023-03-17T18:37:37.514Z,52.76
2023-03-17T18:40:41.928Z,56.18
2023-03-17T18:43:45.081Z,53.26
2023-03-17T18:46:48.542Z,55.93
2023-03-17T18:49:52.401Z,56.12
2023-03-17T18:52:56.029Z,55.06
2023-03-17T18:55:59.436Z,55.83
2023-03-17T18:59:02.327Z,56.98
2023-03-17T19:02:05.295Z,56.94
2023-03-17T19:05:08.858Z,56.28
2023-03-17T19:08:15.284Z,56.87
2023-03-17T19:11:20.172Z,57.30
2023-03-17T19:14:22.741Z,56.81
2023-03-17T19:17:25.600Z,56.69
2023-03-17T19:20:28.598Z,56.26
2023-03-17T19:23:32.302Z,58.50
2023-03-17T19:26:35.552Z,57.63
2023-03-17T19:29:38.451Z,56.10
2023-03-17T19:32:41.335Z,57.37
2023-03-17T19:35:44.642Z,57.82
2023-03-17T19:38:47.511Z,59.69
2023-03-17T19:41:55.058Z,60.15
2023-03-17T19:44:57.994Z,59.67
2023-03-17T19:48:01.086Z,59.88
2023-03-17T19:51:05.067Z,62.27
2023-03-17T19:54:09.782Z,60.45
2023-03-17T19:57:14.118Z,62.03
2023-03-17T20:00:18.400Z,59.97
2023-03-17T20:03:23.130Z,58.95
2023-03-17T20:06:27.341Z,59.85
2023-03-17T20:09:31.992Z,60.08
2023-03-17T20:12:38.113Z,59.78
2023-03-17T20:15:42.110Z,60.71
2023-03-17T20:18:45.354Z,60.73
2023-03-17T20:21:48.485Z,61.71
2023-03-17T20:24:51.690Z,61.53
2023-03-17T20:27:55.167Z,62.55
2023-03-17T20:31:00.093Z,61.94
2023-03-17T20:34:03.324Z,61.09
2023-03-17T20:37:05.991Z,61.90
2023-03-17T20:40:10.786Z,62.55
2023-03-17T20:43:13.464Z,62.63
2023-03-17T20:46:24.745Z,61.63
2023-03-17T20:49:27.903Z,60.74
2023-03-17T20:52:30.839Z,60.32
2023-03-17T20:55:33.702Z,60.52
2023-03-17T20:58:36.619Z,59.90
2023-03-17T21:01:40.379Z,58.07
2023-03-17T21:04:46.829Z,61.89
2023-03-17T21:07:50.145Z,62.29
2023-03-17T21:10:53.607Z,63.50
2023-03-17T21:13:56.834Z,63.23
2023-03-17T21:17:01.424Z,64.28
2023-03-17T21:20:06.428Z,62.85
2023-03-17T21:23:09.468Z,61.64
2023-03-17T21:26:12.719Z,62.48
2023-03-17T21:29:15.408Z,62.38
2023-03-17T21:32:18.390Z,63.05
2023-03-17T21:35:22.092Z,63.59
2023-03-17T21:38:27.529Z,64.43
2023-03-17T21:41:33.877Z,64.15
2023-03-17T21:44:37.282Z,65.97
2023-03-17T21:47:41.320Z,65.94
2023-03-17T21:50:44.420Z,65.73
2023-03-17T21:53:48.038Z,64.99
2023-03-17T21:56:51.504Z,65.71
2023-03-17T21:59:54.048Z,66.53
2023-03-17T22:02:56.807Z,67.64
2023-03-17T22:05:59.424Z,68.03
2023-03-17T22:09:04.515Z,67.98
2023-03-17T22:12:07.987Z,66.35
2023-03-17T22:15:11.042Z,68.08
2023-03-17T22:18:14.176Z,66.90
2023-03-17T22:21:16.756Z,69.20
2023-03-17T22:24:21.821Z,66.94
2023-03-17T22:27:24.530Z,67.56
2023-03-17T22:30:27.183Z,65.38
2023-03-17T22:33:30.166Z,65.82
2023-03-17T22:36:33.354Z,69.43
2023-03-17T22:39:36.006Z,68.35
2023-03-17T22:42:38.819Z,67.44
2023-03-17T22:45:41.445Z,67.50
2023-03-17T22:48:46.180Z,68.41
2023-03-17T22:51:50.169Z,68.60
2023-03-17T22:54:52.742Z,67.69
2023-03-17T22:57:55.410Z,68.84
2023-03-17T23:00:58.090Z,68.14
2023-03-17T23:04:01.224Z,66.45
2023-03-17T23:07:04.113Z,66.73
2023-03-17T23:10:10.759Z,66.91
2023-03-17T23:13:13.743Z,66.94
2023-03-17T23:16:17.289Z,66.59
2023-03-17T23:19:20.675Z,67.23
2023-03-17T23:22:23.629Z,67.04
2023-03-17T23:25:26.645Z,67.26
2023-03-17T23:28:29.227Z,66.61
2023-03-17T23:31:32.250Z,68.65
2023-03-17T23:34:34.904Z,67.87
2023-03-17T23:37:37.490Z,67.79
2023-03-17T23:40:40.160Z,67.46
2023-03-17T23:43:42.985Z,65.68
2023-03-17T23:46:46.505Z,66.51
2023-03-17T23:49:49.260Z,67.25
2023-03-17T23:52:52.202Z,67.45
2023-03-17T23:55:55.012Z,67.81
2023-03-17T23:58:57.910Z,67.87
